Time;durP1;ratioP1;P1;durP2;ratioP2;P2;SDS_P1;SDS_P2;PMS_P1;PMS_P2;Temp;Humidity;BMP_temperature;BMP_pressure;BME280_temperature;BME280_humidity;BME280_pressure;Samples;Min_cycle;Max_cycle;Signal;HPM_P1;HPM_P2
2022/11/03 00:02:25;;;;;;;10.23;2.50;;;10.50;1.00;;;;;;6112374;23;20021;-84
2022/11/03 00:04:50;;;;;;;12.10;2.55;;;10.50;1.00;;;;;;6111736;23;20037;-84
2022/11/03 00:07:20;;;;;;;8.48;2.80;;;10.50;1.00;;;;;;6138094;23;20024;-84
2022/11/03 00:09:46;;;;;;;14.38;3.30;;;10.60;1.00;;;;;;6112762;23;20036;-84
2022/11/03 00:12:12;;;;;;;14.07;3.95;;;10.50;1.00;;;;;;6137346;23;20474;-85
2022/11/03 00:14:37;;;;;;;13.05;3.17;;;10.60;1.00;;;;;;6112236;22;20271;-85
2022/11/03 00:17:03;;;;;;;15.27;3.25;;;10.60;99.90;;;;;;6112958;23;20405;-84
2022/11/03 00:19:29;;;;;;;10.60;3.22;;;10.60;99.90;;;;;;6138455;23;20017;-84
2022/11/03 00:21:57;;;;;;;25.58;3.40;;;10.60;99.90;;;;;;6137915;23;20224;-84
2022/11/03 00:24:23;;;;;;;15.27;2.95;;;10.60;99.90;;;;;;6112667;23;20462;-84
2022/11/03 00:26:51;;;;;;;8.75;2.55;;;10.60;99.90;;;;;;6112653;23;20028;-85
2022/11/03 00:29:17;;;;;;;12.13;2.83;;;10.50;1.00;;;;;;6111818;23;20779;-85
2022/11/03 00:31:44;;;;;;;11.15;2.88;;;10.50;1.00;;;;;;6113915;23;20446;-85
2022/11/03 00:34:10;;;;;;;9.35;2.60;;;10.50;1.00;;;;;;6113107;23;20013;-85
2022/11/03 00:36:41;;;;;;;12.93;2.92;;;10.50;1.00;;;;;;6112651;23;20032;-85
2022/11/03 00:39:08;;;;;;;11.60;3.03;;;10.50;1.00;;;;;;6113058;23;20207;-85
2022/11/03 00:41:34;;;;;;;11.82;3.47;;;10.50;1.00;;;;;;6112467;23;20021;-84
2022/11/03 00:43:59;;;;;;;12.68;3.67;;;10.50;1.00;;;;;;6112064;23;20016;-84
2022/11/03 00:46:26;;;;;;;8.35;2.63;;;10.40;1.00;;;;;;6112989;23;20355;-84
2022/11/03 00:48:52;;;;;;;11.15;2.95;;;10.40;27.50;;;;;;6111933;23;20594;-84
2022/11/03 00:51:32;;;;;;;15.07;2.97;;;10.30;84.00;;;;;;6137965;23;20620;-84
2022/11/03 00:54:00;;;;;;;13.32;2.50;;;10.40;99.90;;;;;;6111832;22;20029;-84
2022/11/03 00:56:28;;;;;;;10.85;2.40;;;10.40;1.00;;;;;;6111631;23;20040;-84
2022/11/03 00:58:56;;;;;;;15.48;2.75;;;10.40;1.00;;;;;;6112520;23;20104;-84
2022/11/03 01:01:24;;;;;;;14.55;3.47;;;10.40;3.50;;;;;;6112150;23;20021;-85
2022/11/03 01:06:52;;;;;;;11.35;2.55;;;10.30;38.50;;;;;;6137314;23;20025;-85
2022/11/03 01:09:17;;;;;;;9.60;2.83;;;10.30;1.00;;;;;;6136903;23;20125;-85
2022/11/03 01:12:01;;;;;;;16.95;3.17;;;10.30;99.90;;;;;;6112870;23;20052;-84
2022/11/03 01:14:33;;;;;;;11.23;2.50;;;10.40;94.20;;;;;;6111780;22;20442;-84
2022/11/03 01:16:59;;;;;;;15.95;2.85;;;10.30;85.60;;;;;;6112594;23;20017;-84
2022/11/03 01:19:25;;;;;;;11.30;2.95;;;10.40;57.00;;;;;;6113637;23;20028;-85
2022/11/03 01:21:52;;;;;;;12.07;3.05;;;10.40;1.00;;;;;;6137640;23;20021;-84
2022/11/03 01:24:19;;;;;;;12.35;2.88;;;10.30;1.00;;;;;;6112544;23;20020;-84
2022/11/03 01:26:45;;;;;;;16.45;3.00;;;10.30;99.90;;;;;;6112433;23;20017;-84
2022/11/03 01:29:11;;;;;;;17.55;3.42;;;10.20;94.00;;;;;;6112165;23;20058;-84
2022/11/03 01:31:39;;;;;;;12.98;2.50;;;10.30;99.90;;;;;;6113523;23;20017;-85
2022/11/03 01:34:05;;;;;;;10.63;2.70;;;10.30;30.90;;;;;;6137921;23;20536;-85
2022/11/03 01:36:30;;;;;;;11.80;2.97;;;10.30;99.90;;;;;;6112354;23;20056;-84
2022/11/03 01:38:56;;;;;;;9.57;2.28;;;10.20;99.90;;;;;;6137014;23;20082;-84
2022/11/03 01:41:27;;;;;;;11.93;2.60;;;10.20;99.90;;;;;;6111729;23;20023;-85
2022/11/03 01:44:08;;;;;;;14.30;2.55;;;10.20;99.90;;;;;;6136442;23;20021;-84
2022/11/03 01:46:45;;;;;;;13.05;3.40;;;10.20;99.90;;;;;;6112467;23;20050;-85
2022/11/03 01:49:21;;;;;;;14.00;2.90;;;10.10;99.90;;;;;;6111718;23;20070;-85
2022/11/03 01:51:55;;;;;;;14.45;3.10;;;10.20;99.90;;;;;;6112275;23;20085;-84
2022/11/03 01:54:23;;;;;;;14.10;3.83;;;10.20;99.90;;;;;;6136651;23;20560;-85
2022/11/03 01:56:50;;;;;;;12.98;3.13;;;10.10;1.00;;;;;;6111036;23;20016;-84
2022/11/03 01:59:17;;;;;;;16.17;2.90;;;10.10;1.00;;;;;;6111788;23;20074;-85
2022/11/03 02:01:44;;;;;;;17.83;3.38;;;10.10;60.90;;;;;;6112587;23;20451;-84
2022/11/03 02:04:15;;;;;;;13.60;3.08;;;10.10;72.10;;;;;;6135847;23;20025;-85
2022/11/03 02:06:41;;;;;;;15.95;2.95;;;10.10;1.00;;;;;;6137057;23;20461;-85
2022/11/03 02:09:11;;;;;;;11.55;2.50;;;10.00;99.90;;;;;;6136803;23;20009;-84
2022/11/03 02:14:22;;;;;;;;;;;10.10;99.90;;;;;;6137104;23;20129;-84
2022/11/03 02:16:55;;;;;;;13.88;3.67;;;10.10;99.90;;;;;;6112576;23;20587;-85
2022/11/03 02:19:43;;;;;;;9.95;2.47;;;10.00;99.90;;;;;;6137224;23;20216;-85
2022/11/03 02:22:35;;;;;;;12.57;2.40;;;10.00;99.90;;;;;;6136845;23;20021;-85
2022/11/03 02:25:29;;;;;;;11.93;2.83;;;10.00;99.90;;;;;;6112559;23;20435;-84
2022/11/03 02:27:55;;;;;;;12.30;2.97;;;10.10;99.90;;;;;;6111869;23;20066;-85
2022/11/03 02:30:20;;;;;;;15.15;3.10;;;10.10;99.90;;;;;;6113102;23;20516;-84
2022/11/03 02:32:59;;;;;;;8.55;3.30;;;10.00;1.00;;;;;;6112945;23;20059;-85
2022/11/03 02:35:41;;;;;;;15.10;3.17;;;10.10;1.00;;;;;;6113989;23;20078;-84
2022/11/03 02:38:13;;;;;;;9.13;2.70;;;10.10;99.90;;;;;;6137386;23;20049;-85
2022/11/03 02:40:45;;;;;;;11.68;2.50;;;10.10;99.90;;;;;;6112709;23;20016;-85
2022/11/03 02:43:13;;;;;;;11.40;2.45;;;10.10;1.00;;;;;;6110669;23;20420;-85
2022/11/03 02:45:39;;;;;;;12.38;3.05;;;10.20;1.00;;;;;;6112491;23;20039;-85
2022/11/03 02:48:05;;;;;;;14.27;2.90;;;10.20;1.00;;;;;;6136569;23;20020;-85
2022/11/03 02:50:33;;;;;;;14.18;3.28;;;10.30;99.90;;;;;;6113072;22;20560;-84
2022/11/03 02:52:59;;;;;;;11.32;3.08;;;10.20;99.90;;;;;;6136860;22;20020;-85
2022/11/03 02:55:34;;;;;;;15.10;3.22;;;10.20;99.90;;;;;;6112163;23;20055;-84
2022/11/03 02:58:18;;;;;;;14.57;3.22;;;10.30;99.90;;;;;;6111253;23;20024;-85
2022/11/03 03:01:10;;;;;;;11.98;3.17;;;10.20;1.00;;;;;;6111889;23;20021;-85
2022/11/03 03:03:55;;;;;;;9.52;2.85;;;10.30;1.00;;;;;;6137321;23;20158;-85
2022/11/03 03:06:38;;;;;;;9.68;2.75;;;10.40;1.00;;;;;;6112727;23;20938;-85
2022/11/03 03:09:09;;;;;;;14.73;3.40;;;10.40;99.90;;;;;;6112121;23;20017;-85
2022/11/03 03:11:37;;;;;;;12.20;2.55;;;10.30;99.90;;;;;;6111192;23;20013;-85
2022/11/03 03:14:08;;;;;;;13.23;3.35;;;10.40;1.00;;;;;;6111848;23;20036;-84
2022/11/03 03:16:57;;;;;;;8.95;2.55;;;10.50;99.90;;;;;;6112662;23;20017;-85
2022/11/03 03:19:45;;;;;;;14.10;2.80;;;10.40;99.90;;;;;;6112339;23;20551;-84
2022/11/03 03:22:36;;;;;;;14.80;3.10;;;10.40;99.90;;;;;;6112519;23;20077;-85
2022/11/03 03:25:14;;;;;;;11.95;3.15;;;10.50;99.90;;;;;;6110696;23;20124;-85
2022/11/03 03:27:45;;;;;;;11.38;2.95;;;10.40;1.00;;;;;;6110648;23;20017;-85
2022/11/03 03:30:11;;;;;;;17.00;2.90;;;10.40;1.00;;;;;;6137124;23;20067;-85
2022/11/03 03:32:43;;;;;;;13.18;3.35;;;10.50;1.00;;;;;;6113059;23;20012;-85
2022/11/03 03:35:15;;;;;;;9.80;3.25;;;10.50;1.00;;;;;;6113242;23;20450;-84
2022/11/03 03:37:46;;;;;;;11.05;3.10;;;10.50;1.00;;;;;;6113337;23;20017;-85
2022/11/03 03:40:18;;;;;;;11.35;2.70;;;10.60;99.90;;;;;;6110723;23;20028;-84
2022/11/03 03:42:46;;;;;;;12.63;2.95;;;10.60;99.90;;;;;;6111395;23;20329;-85
2022/11/03 03:45:12;;;;;;;17.10;3.10;;;10.60;99.90;;;;;;6111649;23;20013;-85
2022/11/03 03:47:39;;;;;;;12.10;3.00;;;10.60;99.90;;;;;;6112134;23;20459;-85
2022/11/03 03:50:06;;;;;;;13.25;3.35;;;10.60;1.00;;;;;;6113225;23;20397;-85
2022/11/03 03:52:34;;;;;;;13.60;3.05;;;10.60;1.00;;;;;;6111711;22;20155;-84
2022/11/03 03:55:00;;;;;;;14.48;3.20;;;10.50;1.00;;;;;;6111215;23;20013;-85
2022/11/03 03:57:28;;;;;;;10.35;3.08;;;10.50;1.00;;;;;;6110491;23;20353;-85
2022/11/03 03:59:54;;;;;;;8.48;3.10;;;10.50;15.60;;;;;;6109907;23;20017;-85
2022/11/03 04:02:20;;;;;;;10.02;3.13;;;10.50;1.00;;;;;;6136465;23;20024;-85
2022/11/03 04:04:45;;;;;;;9.95;2.67;;;10.50;88.10;;;;;;6111544;23;20021;-85
2022/11/03 04:09:55;;;;;;;10.85;2.78;;;10.40;99.90;;;;;;6135094;23;20059;-84
2022/11/03 04:23:19;;;;;;;7.70;2.97;;;10.40;99.90;;;;;;6137088;23;20025;-85
2022/11/03 04:25:51;;;;;;;11.55;3.42;;;10.40;99.90;;;;;;6111906;23;20017;-85
2022/11/03 04:28:17;;;;;;;12.02;3.20;;;10.40;99.90;;;;;;6135693;23;20017;-84
2022/11/03 04:30:43;;;;;;;11.13;2.97;;;10.40;99.90;;;;;;6112429;23;20013;-85
2022/11/03 04:33:15;;;;;;;11.88;3.58;;;10.40;99.90;;;;;;6136662;23;20418;-85
2022/11/03 04:35:43;;;;;;;12.10;3.97;;;10.40;99.90;;;;;;6111150;23;20025;-85
2022/11/03 04:38:22;;;;;;;13.68;3.28;;;10.30;99.90;;;;;;6136544;23;20137;-84
2022/11/03 04:41:02;;;;;;;8.43;2.65;;;10.30;99.90;;;;;;6110687;23;20128;-85
2022/11/03 04:43:40;;;;;;;9.80;3.28;;;10.40;99.90;;;;;;6110128;23;20141;-84
2022/11/03 04:46:10;;;;;;;11.30;2.53;;;10.40;99.90;;;;;;6111338;23;20289;-85
2022/11/03 04:48:35;;;;;;;12.25;3.00;;;10.50;99.90;;;;;;6111188;23;20057;-84
2022/11/03 04:51:14;;;;;;;13.20;3.33;;;10.50;99.90;;;;;;6111287;23;20013;-84
2022/11/03 04:53:47;;;;;;;11.27;3.17;;;10.40;99.90;;;;;;6113744;22;20184;-84
2022/11/03 04:56:16;;;;;;;12.60;3.20;;;10.40;99.90;;;;;;6111178;23;20276;-85
2022/11/03 04:58:41;;;;;;;17.25;3.33;;;10.40;99.90;;;;;;6113199;23;20017;-84
2022/11/03 05:01:12;;;;;;;13.50;2.85;;;10.40;99.90;;;;;;6112662;23;20024;-84
2022/11/03 05:03:43;;;;;;;11.90;3.33;;;10.40;99.90;;;;;;6114231;23;20565;-85
2022/11/03 05:06:19;;;;;;;13.32;2.90;;;10.40;99.90;;;;;;6113447;23;20092;-85
2022/11/03 05:08:48;;;;;;;16.00;3.20;;;10.40;99.90;;;;;;6113001;23;20104;-85
2022/11/03 05:11:40;;;;;;;9.10;2.95;;;10.30;99.90;;;;;;6136684;23;20021;-84
2022/11/03 05:14:26;;;;;;;11.23;3.20;;;10.30;99.90;;;;;;6112454;23;20013;-85
2022/11/03 05:16:53;;;;;;;8.77;2.83;;;10.30;99.90;;;;;;6113517;23;20016;-84
2022/11/03 05:19:26;;;;;;;9.85;2.58;;;10.30;99.90;;;;;;6113652;23;20694;-85
2022/11/03 05:21:55;;;;;;;11.43;3.30;;;10.20;99.90;;;;;;6113549;23;20024;-84
2022/11/03 05:24:24;;;;;;;13.38;3.35;;;10.20;99.90;;;;;;6113063;23;20061;-85
2022/11/03 05:26:51;;;;;;;14.90;3.50;;;10.20;99.90;;;;;;6111968;23;20203;-85
2022/11/03 05:29:42;;;;;;;12.10;3.08;;;10.30;99.90;;;;;;6111188;23;20070;-84
2022/11/03 05:32:15;;;;;;;10.65;3.05;;;10.30;99.90;;;;;;6112244;23;20648;-85
2022/11/03 05:34:45;;;;;;;10.85;3.45;;;10.30;99.90;;;;;;6113066;23;20441;-84
2022/11/03 05:37:32;;;;;;;16.10;3.47;;;10.30;99.90;;;;;;6113215;23;20013;-84
2022/11/03 05:40:19;;;;;;;13.43;3.92;;;10.30;99.90;;;;;;6111621;23;20017;-85
2022/11/03 05:42:49;;;;;;;13.93;2.90;;;10.30;99.90;;;;;;6136281;23;20036;-84
2022/11/03 05:45:30;;;;;;;12.57;3.00;;;10.30;99.90;;;;;;6135943;23;20342;-84
2022/11/03 05:47:57;;;;;;;14.88;4.03;;;10.30;99.90;;;;;;6111226;23;20761;-84
2022/11/03 05:50:25;;;;;;;13.32;2.92;;;10.30;99.90;;;;;;6113639;23;20013;-84
2022/11/03 05:52:57;;;;;;;12.13;2.95;;;10.30;99.90;;;;;;6131181;23;20026;-85
2022/11/03 05:55:30;;;;;;;12.52;3.40;;;10.30;99.90;;;;;;6106914;23;20539;-84
2022/11/03 05:57:59;;;;;;;13.40;3.10;;;10.30;99.90;;;;;;6106433;23;20082;-84
2022/11/03 06:00:36;;;;;;;11.95;2.85;;;10.30;99.90;;;;;;6131495;23;20341;-84
2022/11/03 06:03:03;;;;;;;9.65;3.08;;;10.30;99.90;;;;;;6108605;23;20102;-85
2022/11/03 06:05:31;;;;;;;8.65;2.75;;;10.40;99.90;;;;;;6109361;23;20502;-84
2022/11/03 06:08:04;;;;;;;12.48;3.30;;;10.40;99.90;;;;;;6132482;23;20021;-84
2022/11/03 06:10:34;;;;;;;13.38;3.35;;;10.30;99.90;;;;;;6132269;23;20014;-84
2022/11/03 06:13:28;;;;;;;11.23;3.08;;;10.30;99.90;;;;;;6130139;23;20240;-84
2022/11/03 06:16:18;;;;;;;13.00;3.42;;;10.30;99.90;;;;;;6108511;23;20044;-85
2022/11/03 06:18:44;;;;;;;10.30;3.10;;;10.30;99.90;;;;;;6106706;23;20116;-84
2022/11/03 06:21:20;;;;;;;10.65;2.70;;;10.20;99.90;;;;;;6106742;23;20097;-85
2022/11/03 06:23:46;;;;;;;9.13;3.25;;;10.30;99.90;;;;;;6106593;23;20013;-84
2022/11/03 06:26:22;;;;;;;10.15;2.97;;;10.30;99.90;;;;;;6104058;23;20013;-85
2022/11/03 06:28:48;;;;;;;11.35;2.70;;;10.30;99.90;;;;;;6105861;23;20095;-84
2022/11/03 06:31:26;;;;;;;7.47;2.70;;;10.30;99.90;;;;;;6107651;23;20014;-85
2022/11/03 06:33:52;;;;;;;12.85;2.97;;;10.30;99.90;;;;;;6109295;23;20433;-84
2022/11/03 06:36:21;;;;;;;14.93;2.85;;;10.30;99.90;;;;;;6132818;23;20014;-85
2022/11/03 06:38:56;;;;;;;13.40;3.08;;;10.30;99.90;;;;;;6131798;23;20017;-85
2022/11/03 06:41:28;;;;;;;9.10;3.85;;;10.30;99.90;;;;;;6105907;23;20013;-85
2022/11/03 06:43:56;;;;;;;8.40;2.97;;;10.30;99.90;;;;;;6104871;23;20009;-85
2022/11/03 06:46:23;;;;;;;8.80;2.70;;;10.40;99.90;;;;;;6130998;23;20104;-85
2022/11/03 06:48:51;;;;;;;7.55;2.92;;;10.40;99.90;;;;;;6105893;23;20094;-85
2022/11/03 06:51:25;;;;;;;7.53;2.65;;;10.30;99.90;;;;;;6106149;23;20074;-84
2022/11/03 06:53:53;;;;;;;11.63;3.17;;;10.30;99.90;;;;;;6132200;23;20024;-84
2022/11/03 06:56:21;;;;;;;8.02;3.30;;;10.30;99.90;;;;;;6130835;23;20427;-85
2022/11/03 06:58:49;;;;;;;12.82;3.85;;;10.40;99.90;;;;;;6107004;23;20010;-84
2022/11/03 07:01:31;;;;;;;7.82;2.80;;;10.40;99.90;;;;;;6106916;23;20096;-85
2022/11/03 07:04:00;;;;;;;7.22;2.90;;;10.40;99.90;;;;;;6136114;23;20465;-90
2022/11/03 07:06:30;;;;;;;9.63;3.08;;;10.50;99.90;;;;;;6111478;23;20118;-92
2022/11/03 07:08:59;;;;;;;12.35;3.45;;;10.50;99.90;;;;;;6111440;23;20541;-92
2022/11/03 07:11:39;;;;;;;10.43;3.47;;;10.50;99.90;;;;;;6134928;23;20017;-91
2022/11/03 07:14:15;;;;;;;12.20;3.30;;;10.50;99.90;;;;;;6134605;23;20440;-92
2022/11/03 07:16:44;;;;;;;13.57;3.42;;;10.50;99.90;;;;;;6111308;23;20044;-90
2022/11/03 07:19:16;;;;;;;13.20;3.42;;;10.50;99.90;;;;;;6112076;23;20032;-91
2022/11/03 07:21:50;;;;;;;11.48;3.47;;;10.60;99.90;;;;;;6111701;23;20017;-90
2022/11/03 07:24:37;;;;;;;12.95;3.72;;;10.70;99.90;;;;;;6109799;23;20563;-90
2022/11/03 07:27:29;;;;;;;10.00;3.67;;;10.70;99.90;;;;;;6111149;23;20423;-90
2022/11/03 07:30:25;;;;;;;7.45;2.97;;;10.80;99.90;;;;;;6110410;23;20101;-91
2022/11/03 07:32:59;;;;;;;9.38;3.10;;;10.80;99.90;;;;;;6134926;23;20014;-91
2022/11/03 07:35:34;;;;;;;11.25;3.50;;;10.90;99.90;;;;;;6112607;23;20374;-92
2022/11/03 07:38:10;;;;;;;11.05;3.13;;;10.90;99.90;;;;;;6111779;23;20018;-92
2022/11/03 07:40:36;;;;;;;9.18;3.03;;;11.00;99.90;;;;;;6110355;23;20032;-91
2022/11/03 07:43:23;;;;;;;13.13;3.40;;;11.00;99.90;;;;;;6109990;23;20047;-91
2022/11/03 07:45:51;;;;;;;10.27;3.33;;;11.10;99.90;;;;;;6110370;23;20052;-90
2022/11/03 07:48:19;;;;;;;8.10;3.17;;;11.10;99.90;;;;;;6109937;23;20018;-90
2022/11/03 07:50:56;;;;;;;11.55;4.15;;;11.20;99.90;;;;;;6136602;23;20268;-91
2022/11/03 07:53:44;;;;;;;12.07;3.10;;;11.20;99.90;;;;;;6110575;23;20021;-91
2022/11/03 07:56:34;;;;;;;9.77;3.28;;;11.30;99.90;;;;;;6110109;23;20018;-90
2022/11/03 07:59:03;;;;;;;9.85;3.55;;;11.40;99.90;;;;;;6110658;23;20062;-90
2022/11/03 08:01:33;;;;;;;12.60;3.10;;;11.40;99.90;;;;;;6111369;23;20130;-91
2022/11/03 08:04:08;;;;;;;10.32;3.03;;;11.50;99.90;;;;;;6134693;23;20246;-90
2022/11/03 08:06:37;;;;;;;10.18;3.47;;;11.50;99.90;;;;;;6110265;23;20350;-91
2022/11/03 08:09:03;;;;;;;13.40;3.10;;;11.60;99.90;;;;;;6110644;23;20031;-92
2022/11/03 08:11:29;;;;;;;13.38;3.35;;;11.70;99.90;;;;;;6135091;23;20318;-90
2022/11/03 08:13:55;;;;;;;8.73;3.53;;;11.80;99.90;;;;;;6135098;23;20096;-90
2022/11/03 08:16:21;;;;;;;8.18;3.63;;;11.80;99.90;;;;;;6110536;23;20480;-89
2022/11/03 08:18:46;;;;;;;12.40;3.80;;;11.90;99.90;;;;;;6111294;22;20505;-91
2022/11/03 08:21:13;;;;;;;10.50;2.95;;;12.00;2.20;;;;;;6135235;23;20071;-91
2022/11/03 08:23:39;;;;;;;9.52;3.03;;;12.10;1.00;;;;;;6110243;23;20313;-91
2022/11/03 08:26:05;;;;;;;11.30;3.47;;;12.20;12.00;;;;;;6109594;23;20010;-90
2022/11/03 08:28:32;;;;;;;13.45;4.18;;;12.30;1.00;;;;;;6112049;23;20056;-91
2022/11/03 08:31:03;;;;;;;12.00;3.15;;;12.40;1.00;;;;;;6135313;23;20301;-92
2022/11/03 08:33:32;;;;;;;9.10;3.03;;;12.40;1.00;;;;;;6111801;23;20013;-91
2022/11/03 08:35:58;;;;;;;9.45;3.17;;;12.50;99.90;;;;;;6136395;23;20466;-90
2022/11/03 08:38:24;;;;;;;10.18;3.22;;;12.50;99.90;;;;;;6111397;23;20024;-91
2022/11/03 08:40:51;;;;;;;11.95;3.22;;;12.60;99.90;;;;;;6112088;23;20320;-92
2022/11/03 08:43:16;;;;;;;11.05;2.95;;;12.60;99.90;;;;;;6110458;23;20022;-91
2022/11/03 08:45:42;;;;;;;8.10;2.95;;;12.60;99.90;;;;;;6111747;23;20022;-90
2022/11/03 08:48:08;;;;;;;10.27;2.80;;;12.60;99.90;;;;;;6111606;23;20241;-93
2022/11/03 08:50:37;;;;;;;8.10;3.00;;;12.60;99.90;;;;;;6111971;23;20013;-91
2022/11/03 08:53:02;;;;;;;10.38;3.35;;;12.60;99.90;;;;;;6136216;23;20017;-91
2022/11/03 08:55:28;;;;;;;11.23;3.25;;;12.70;99.90;;;;;;6112093;23;20014;-91
2022/11/03 08:57:54;;;;;;;10.38;3.30;;;12.70;99.90;;;;;;6135389;23;20022;-91
2022/11/03 09:00:19;;;;;;;14.60;3.58;;;12.70;99.90;;;;;;6111327;22;20022;-90
2022/11/03 09:02:45;;;;;;;8.77;3.10;;;12.70;99.90;;;;;;6112292;23;20082;-91
2022/11/03 09:05:12;;;;;;;11.45;2.95;;;12.80;99.90;;;;;;6112894;23;20508;-90
2022/11/03 09:07:39;;;;;;;9.70;3.30;;;12.80;99.90;;;;;;6111954;23;20021;-91
2022/11/03 09:10:07;;;;;;;11.88;3.28;;;12.80;99.90;;;;;;6136701;23;20009;-90
2022/11/03 09:12:33;;;;;;;9.95;3.47;;;12.90;99.90;;;;;;6111859;23;20297;-90
2022/11/03 09:14:59;;;;;;;10.25;3.58;;;13.00;99.90;;;;;;6135965;23;20151;-91
2022/11/03 09:17:24;;;;;;;9.68;3.00;;;13.00;99.90;;;;;;6112956;23;20018;-92
2022/11/03 09:19:50;;;;;;;10.05;3.03;;;13.00;99.90;;;;;;6111522;23;20024;-91
2022/11/03 09:22:15;;;;;;;7.53;2.92;;;13.10;99.90;;;;;;6111550;23;20013;-91
2022/11/03 09:24:44;;;;;;;9.88;3.38;;;13.20;51.30;;;;;;6135391;23;20070;-90
2022/11/03 09:27:10;;;;;;;13.00;4.35;;;13.20;99.90;;;;;;6135328;23;20017;-91
2022/11/03 09:29:35;;;;;;;7.50;3.17;;;13.20;96.90;;;;;;6111410;23;20070;-91
2022/11/03 09:32:01;;;;;;;13.32;3.97;;;13.30;1.00;;;;;;6136040;23;20021;-91
2022/11/03 09:34:28;;;;;;;11.25;2.92;;;13.40;1.00;;;;;;6135526;23;20097;-89
2022/11/03 09:36:53;;;;;;;10.30;3.13;;;13.40;1.00;;;;;;6136544;23;20028;-91
2022/11/03 09:39:19;;;;;;;10.48;3.65;;;13.50;99.90;;;;;;6136452;23;20022;-90
2022/11/03 09:41:48;;;;;;;8.57;3.25;;;13.60;99.90;;;;;;6111123;22;20622;-91
2022/11/03 09:44:13;;;;;;;10.57;3.42;;;13.60;99.90;;;;;;6135707;23;20414;-91
2022/11/03 09:46:40;;;;;;;10.70;3.50;;;13.80;99.90;;;;;;6111773;23;20032;-91
2022/11/03 09:49:05;;;;;;;12.68;3.10;;;13.80;99.90;;;;;;6136256;23;20014;-91
2022/11/03 09:51:33;;;;;;;11.23;3.45;;;13.90;99.90;;;;;;6112092;23;20090;-92
2022/11/03 09:54:03;;;;;;;9.63;3.22;;;14.00;32.20;;;;;;6111622;23;20257;-91
2022/11/03 09:56:29;;;;;;;8.90;3.15;;;14.10;1.00;;;;;;6110654;23;20367;-91
2022/11/03 09:58:55;;;;;;;5.72;2.97;;;14.10;99.90;;;;;;6136393;23;20014;-91
2022/11/03 10:01:22;;;;;;;10.90;3.40;;;14.20;99.90;;;;;;6112403;23;20093;-90
2022/11/03 10:03:48;;;;;;;8.57;3.20;;;14.40;99.90;;;;;;6111894;23;20021;-91
2022/11/03 10:06:16;;;;;;;7.47;3.03;;;14.50;99.90;;;;;;6112230;23;20108;-91
2022/11/03 10:08:45;;;;;;;8.73;3.10;;;14.70;99.90;;;;;;6112050;23;20017;-92
2022/11/03 10:11:11;;;;;;;13.85;4.05;;;14.70;99.90;;;;;;6111033;23;20018;-90
2022/11/03 10:13:46;;;;;;;8.38;2.50;;;14.70;1.00;;;;;;6115895;23;20013;-90
2022/11/03 10:16:17;;;;;;;11.88;3.13;;;14.80;11.90;;;;;;6112118;23;20217;-91
2022/11/03 10:18:43;;;;;;;11.15;3.15;;;14.80;99.90;;;;;;6136325;23;20013;-91
2022/11/03 10:21:23;;;;;;;9.43;3.17;;;14.70;5.10;;;;;;6111560;23;20017;-91
2022/11/03 10:23:49;;;;;;;9.25;3.47;;;14.70;99.90;;;;;;6111663;23;20052;-90
2022/11/03 10:26:18;;;;;;;11.95;3.10;;;14.70;99.90;;;;;;6110632;23;20021;-91
2022/11/03 10:29:04;;;;;;;9.57;2.67;;;14.70;99.90;;;;;;6111162;23;20018;-91
2022/11/03 10:31:40;;;;;;;9.98;3.05;;;14.70;66.00;;;;;;6112327;23;20021;-90
2022/11/03 10:34:25;;;;;;;8.15;2.90;;;14.80;1.00;;;;;;6136380;23;20092;-91
2022/11/03 10:37:27;;;;;;;;;;;14.80;1.00;;;;;;6111649;23;20141;-91
2022/11/03 10:39:57;;;;;;;8.20;2.95;;;15.00;1.00;;;;;;6197606;23;20200;-91
2022/11/03 10:42:25;;;;;;;8.82;2.80;;;15.20;99.90;;;;;;6141392;23;20071;-90
2022/11/03 10:45:16;;;;;;;8.88;2.83;;;15.40;99.90;;;;;;6111546;23;20554;-90
2022/11/03 10:47:41;;;;;;;9.82;2.83;;;15.50;98.10;;;;;;6140942;23;20028;-89
2022/11/03 10:50:25;;;;;;;10.02;2.83;;;15.50;1.00;;;;;;6114498;23;20013;-90
2022/11/03 10:52:51;;;;;;;11.02;3.10;;;15.60;99.90;;;;;;6111111;23;20022;-90
2022/11/03 10:55:18;;;;;;;11.88;2.85;;;15.60;99.90;;;;;;6110733;23;20528;-90
2022/11/03 10:57:45;;;;;;;9.63;2.65;;;15.70;99.90;;;;;;6110849;23;20136;-91
2022/11/03 11:00:18;;;;;;;15.52;3.47;;;15.60;99.90;;;;;;6111221;23;20022;-89
2022/11/03 11:02:46;;;;;;;7.93;2.50;;;15.60;99.90;;;;;;6135730;23;20029;-91
2022/11/03 11:05:20;;;;;;;7.45;2.58;;;15.70;99.90;;;;;;6111888;23;20024;-91
2022/11/03 11:07:47;;;;;;;9.80;2.47;;;15.80;99.90;;;;;;6110996;23;20022;-89
2022/11/03 11:10:22;;;;;;;6.78;2.60;;;15.90;99.90;;;;;;6134859;23;20021;-91
2022/11/03 11:13:22;;;;;;;10.73;3.10;;;15.90;99.90;;;;;;6135347;23;20063;-90
2022/11/03 11:15:57;;;;;;;10.10;3.10;;;15.90;93.30;;;;;;6111175;23;20032;-91
2022/11/03 11:18:46;;;;;;;6.25;2.70;;;15.90;1.00;;;;;;6107934;23;20350;-84
2022/11/03 11:21:16;;;;;;;6.13;2.35;;;16.00;53.30;;;;;;6108727;23;20018;-84
2022/11/03 11:23:43;;;;;;;6.07;2.53;;;16.20;21.90;;;;;;6108932;23;20108;-84
2022/11/03 11:26:09;;;;;;;10.30;2.70;;;16.20;99.90;;;;;;6107510;23;20836;-85
2022/11/03 11:28:46;;;;;;;6.30;2.55;;;16.30;1.00;;;;;;6107731;23;20014;-84
2022/11/03 11:31:31;;;;;;;10.88;2.58;;;16.30;99.90;;;;;;6108326;23;20550;-85
2022/11/03 11:34:11;;;;;;;8.80;2.75;;;16.10;99.90;;;;;;6108340;23;20074;-84
2022/11/03 11:36:44;;;;;;;6.65;2.53;;;16.10;99.90;;;;;;6108901;23;20216;-84
2022/11/03 11:39:19;;;;;;;9.05;2.10;;;16.10;99.90;;;;;;6132145;23;20013;-84
2022/11/03 11:42:06;;;;;;;9.90;2.58;;;16.10;99.90;;;;;;6108549;23;20431;-84
2022/11/03 11:44:38;;;;;;;5.00;2.40;;;15.90;99.90;;;;;;6106817;23;20009;-84
2022/11/03 11:47:22;;;;;;;9.40;2.80;;;15.90;99.90;;;;;;6108872;22;20406;-84
2022/11/03 11:49:59;;;;;;;7.43;2.45;;;16.00;99.90;;;;;;6133386;23;20013;-83
2022/11/03 11:52:26;;;;;;;8.82;2.30;;;16.10;99.90;;;;;;6107687;23;20018;-84
2022/11/03 11:54:52;;;;;;;10.95;3.08;;;16.00;99.90;;;;;;6107018;23;20112;-84
2022/11/03 11:57:20;;;;;;;6.30;2.28;;;16.10;99.90;;;;;;6107167;23;20021;-84
2022/11/03 11:59:47;;;;;;;8.57;2.20;;;16.00;99.90;;;;;;6131881;23;20018;-84
2022/11/03 12:02:19;;;;;;;6.78;2.20;;;16.10;99.90;;;;;;6132828;23;20100;-84
2022/11/03 12:04:53;;;;;;;7.35;2.40;;;16.00;99.90;;;;;;6108165;23;20017;-85
2022/11/03 12:07:34;;;;;;;9.00;2.38;;;16.00;99.90;;;;;;6107261;23;20179;-84
2022/11/03 12:10:13;;;;;;;8.95;2.45;;;16.00;99.90;;;;;;6107927;23;20028;-84
2022/11/03 12:12:39;;;;;;;7.30;2.40;;;15.90;99.90;;;;;;6106227;23;20009;-84
2022/11/03 12:15:25;;;;;;;4.47;2.15;;;15.90;99.90;;;;;;6131303;23;20010;-84
2022/11/03 12:17:51;;;;;;;10.65;2.67;;;15.90;99.90;;;;;;6132891;23;20447;-84
2022/11/03 12:20:46;;;;;;;7.03;2.20;;;15.90;99.90;;;;;;6107387;23;20014;-84
2022/11/03 12:23:41;;;;;;;10.10;2.20;;;15.70;34.10;;;;;;6107242;23;20045;-84
2022/11/03 12:26:26;;;;;;;7.95;2.28;;;15.70;13.10;;;;;;6130290;23;20017;-84
2022/11/03 12:28:52;;;;;;;6.60;2.10;;;15.80;1.00;;;;;;6107861;23;20414;-84
2022/11/03 12:31:18;;;;;;;7.68;2.35;;;15.70;1.00;;;;;;6107170;23;20017;-84
2022/11/03 12:33:43;;;;;;;7.10;2.03;;;15.60;1.00;;;;;;6108366;23;20150;-84
2022/11/03 12:36:09;;;;;;;6.32;2.45;;;15.60;1.00;;;;;;6107941;23;20028;-84
2022/11/03 12:38:35;;;;;;;4.75;2.28;;;15.70;39.50;;;;;;6108848;23;20020;-84
2022/11/03 12:41:20;;;;;;;10.27;2.55;;;15.50;1.00;;;;;;6106190;23;20461;-84
2022/11/03 12:43:50;;;;;;;6.00;2.27;;;15.60;22.20;;;;;;6106831;23;20014;-84
2022/11/03 12:46:17;;;;;;;7.97;2.80;;;15.60;99.90;;;;;;6107107;23;20323;-84
2022/11/03 12:48:43;;;;;;;6.70;2.30;;;15.60;63.40;;;;;;6107795;23;20014;-84
2022/11/03 12:51:13;;;;;;;5.75;2.00;;;15.60;8.30;;;;;;6131622;23;20013;-84
2022/11/03 12:53:39;;;;;;;6.68;2.17;;;15.70;14.20;;;;;;6107460;23;20018;-84
2022/11/03 12:56:06;;;;;;;9.35;2.20;;;15.90;1.00;;;;;;6130809;23;20018;-84
2022/11/03 12:58:32;;;;;;;7.43;1.98;;;16.10;99.90;;;;;;6106838;23;20013;-84
2022/11/03 13:00:58;;;;;;;7.50;2.75;;;16.30;99.90;;;;;;6131413;23;20354;-84
2022/11/03 13:03:24;;;;;;;8.05;2.20;;;16.40;99.90;;;;;;6106112;23;20353;-84
2022/11/03 13:05:49;;;;;;;5.45;1.92;;;16.50;99.90;;;;;;6108100;23;20250;-84
2022/11/03 13:08:15;;;;;;;4.40;2.20;;;16.50;99.90;;;;;;6106767;23;20021;-84
2022/11/03 13:10:41;;;;;;;9.35;2.38;;;16.60;99.90;;;;;;6130535;23;20097;-84
2022/11/03 13:13:06;;;;;;;8.63;2.60;;;16.60;99.90;;;;;;6130248;23;20024;-84
2022/11/03 13:15:32;;;;;;;7.93;2.20;;;16.60;99.90;;;;;;6108316;23;20045;-84
2022/11/03 13:17:58;;;;;;;7.05;2.17;;;16.60;99.90;;;;;;6108456;23;20028;-84
2022/11/03 13:20:24;;;;;;;7.75;2.33;;;16.40;99.90;;;;;;6132497;23;20106;-85
2022/11/03 13:22:50;;;;;;;9.43;2.40;;;16.40;99.90;;;;;;6107703;23;20013;-84
2022/11/03 13:25:17;;;;;;;8.25;2.53;;;16.40;99.90;;;;;;6107938;23;20017;-84